Terminal Aerodrome Forecast
Issued by NWS

Home | Current Version | Previous Version | Text Only | Print | Product List | Glossary On
Versions: 1 2 3 4 5 6 7 8 9 10 11 12 13 14 15 16 17 18 19 20 21 22 23
837
FTUS46 KEKA 211120
TAFUKI
TAF
KUKI 211120Z 2112/2212 VRB03KT P6SM BKN150
      TEMPO 2112/2116 6SM BR FEW005 BKN150
     FM211700 15006KT P6SM VCSH SCT025 OVC100
     FM220000 16008G15KT 5SM -RA BR OVC025
     FM220200 16008G15KT 4SM RA BR OVC020
     FM220900 VRB03KT 4SM -SHRA BR OVC020=

USA.gov is the U.S. government's official web portal to all federal, state and local government web resources and services.